createdAt,value
2023-02-07T00:00:46.333Z,970.19
2023-02-07T00:01:46.375Z,970.19
2023-02-07T00:02:46.291Z,970.18
2023-02-07T00:03:46.289Z,970.16
2023-02-07T00:04:46.258Z,970.14
2023-02-07T00:05:46.254Z,970.19
2023-02-07T00:06:46.270Z,970.12
2023-02-07T00:07:46.234Z,970.17
2023-02-07T00:08:46.226Z,970.19
2023-02-07T00:09:46.204Z,970.16
2023-02-07T00:10:46.232Z,970.17
2023-02-07T00:11:46.181Z,970.16
2023-02-07T00:12:46.163Z,970.14
2023-02-07T00:13:46.153Z,970.10
2023-02-07T00:14:46.135Z,970.07
2023-02-07T00:15:46.148Z,970.10
2023-02-07T00:16:46.169Z,970.10
2023-02-07T00:17:46.106Z,970.15
2023-02-07T00:18:46.080Z,970.13
2023-02-07T00:19:46.100Z,970.11
2023-02-07T00:20:46.064Z,970.10
2023-02-07T00:21:46.034Z,970.08
2023-02-07T00:22:46.042Z,970.08
2023-02-07T00:23:46.008Z,970.05
2023-02-07T00:24:46.028Z,970.03
2023-02-07T00:25:46.023Z,970.04
2023-02-07T00:26:45.976Z,970.04
2023-02-07T00:27:46.064Z,970.07
2023-02-07T00:28:46.054Z,970.02
2023-02-07T00:29:45.978Z,970.03
2023-02-07T00:30:46.003Z,970.07
2023-02-07T00:31:45.984Z,970.03
2023-02-07T00:32:45.909Z,970.01
2023-02-07T00:33:45.912Z,970.02
2023-02-07T00:34:45.903Z,969.99
2023-02-07T00:35:45.910Z,970.01
2023-02-07T00:36:45.878Z,970.00
2023-02-07T00:37:45.840Z,970.00
2023-02-07T00:38:45.833Z,969.98
2023-02-07T00:39:45.834Z,969.95
2023-02-07T00:40:45.827Z,970.00
2023-02-07T00:41:45.788Z,970.00
2023-02-07T00:42:45.816Z,970.01
2023-02-07T00:43:45.767Z,969.95
2023-02-07T00:44:45.745Z,970.00
2023-02-07T00:45:45.825Z,969.96
2023-02-07T00:46:45.720Z,969.92
2023-02-07T00:47:45.708Z,969.87
2023-02-07T00:48:45.700Z,969.86
2023-02-07T00:49:45.721Z,969.90
2023-02-07T00:50:45.678Z,969.89
2023-02-07T00:51:45.666Z,969.85
2023-02-07T00:52:45.657Z,969.85
2023-02-07T00:53:45.664Z,969.90
2023-02-07T00:54:45.629Z,969.94
2023-02-07T00:55:45.608Z,969.86
2023-02-07T00:56:45.623Z,969.91
2023-02-07T00:57:45.596Z,969.93
2023-02-07T00:58:45.584Z,969.99
2023-02-07T00:59:45.572Z,969.99
2023-02-07T01:00:45.584Z,970.09
2023-02-07T01:01:45.544Z,970.08
2023-02-07T01:02:45.534Z,970.06
2023-02-07T01:03:45.546Z,970.04
2023-02-07T01:04:45.561Z,970.04
2023-02-07T01:05:45.495Z,969.99
2023-02-07T01:06:45.481Z,970.03
2023-02-07T01:07:45.459Z,970.06
2023-02-07T01:08:45.475Z,970.01
2023-02-07T01:09:45.458Z,970.02
2023-02-07T01:10:45.428Z,970.05
2023-02-07T01:11:45.424Z,970.03
2023-02-07T01:12:45.428Z,970.01
2023-02-07T01:13:45.389Z,970.02
2023-02-07T01:14:45.364Z,970.00
2023-02-07T01:15:45.405Z,970.00
2023-02-07T01:16:45.384Z,969.99
2023-02-07T01:17:45.337Z,970.02
2023-02-07T01:18:45.321Z,970.01
2023-02-07T01:19:45.303Z,969.98
2023-02-07T01:20:45.312Z,970.01
2023-02-07T01:21:45.310Z,969.97
2023-02-07T01:22:45.277Z,969.88
2023-02-07T01:23:45.301Z,969.89
2023-02-07T01:24:45.270Z,969.87
2023-02-07T01:25:45.234Z,969.88
2023-02-07T01:26:45.224Z,969.83
2023-02-07T01:27:45.218Z,969.88
2023-02-07T01:28:45.219Z,969.84
2023-02-07T01:29:45.193Z,969.83
2023-02-07T01:30:45.284Z,969.86
2023-02-07T01:31:45.204Z,969.90
2023-02-07T01:32:45.156Z,969.88
2023-02-07T01:33:45.149Z,969.86
2023-02-07T01:34:45.136Z,969.83
2023-02-07T01:35:45.096Z,969.85
2023-02-07T01:36:45.093Z,969.81
2023-02-07T01:37:45.077Z,969.79
2023-02-07T01:38:45.072Z,969.77
2023-02-07T01:39:45.081Z,969.77
2023-02-07T01:40:45.087Z,969.77
2023-02-07T01:41:45.019Z,969.79
2023-02-07T01:42:45.017Z,969.77
2023-02-07T01:43:45.004Z,969.82
2023-02-07T01:44:45.009Z,969.85
2023-02-07T01:45:44.969Z,969.83
2023-02-07T01:46:44.959Z,969.83
2023-02-07T01:47:44.943Z,969.74
2023-02-07T01:48:44.928Z,969.77
2023-02-07T01:49:44.952Z,969.73
2023-02-07T01:50:44.928Z,969.69
2023-02-07T01:51:44.895Z,969.69
2023-02-07T01:52:44.877Z,969.67
2023-02-07T01:53:44.878Z,969.68
2023-02-07T01:54:44.853Z,969.69
2023-02-07T01:55:44.865Z,969.72
2023-02-07T01:56:44.858Z,969.75
2023-02-07T01:57:44.818Z,969.81
2023-02-07T01:58:44.807Z,969.77
2023-02-07T01:59:44.798Z,969.79
2023-02-07T02:00:44.784Z,969.76
2023-02-07T02:01:44.800Z,969.76
2023-02-07T02:02:44.856Z,969.77
2023-02-07T02:03:44.747Z,969.75
2023-02-07T02:04:44.730Z,969.78
2023-02-07T02:05:44.747Z,969.80
2023-02-07T02:06:44.697Z,969.78
2023-02-07T02:07:44.716Z,969.81
2023-02-07T02:08:44.684Z,969.81
2023-02-07T02:09:44.663Z,969.81
2023-02-07T02:10:44.697Z,969.88
2023-02-07T02:11:44.665Z,969.91
2023-02-07T02:12:44.617Z,969.88
2023-02-07T02:13:44.672Z,969.97
2023-02-07T02:14:44.604Z,969.97
2023-02-07T02:15:44.695Z,970.01
2023-02-07T02:16:44.593Z,970.02
2023-02-07T02:17:44.560Z,970.02
2023-02-07T02:18:44.552Z,970.10
2023-02-07T02:19:44.532Z,970.08
2023-02-07T02:20:44.553Z,970.14
2023-02-07T02:21:44.563Z,970.18
2023-02-07T02:22:44.500Z,970.19
2023-02-07T02:23:44.481Z,970.22
2023-02-07T02:24:44.477Z,970.27
2023-02-07T02:25:44.464Z,970.25
2023-02-07T02:26:44.493Z,970.31
2023-02-07T02:27:44.443Z,970.33
2023-02-07T02:28:44.436Z,970.33
2023-02-07T02:29:44.410Z,970.37
2023-02-07T02:30:44.411Z,970.42
2023-02-07T02:31:44.632Z,970.50
2023-02-07T02:32:44.369Z,970.52
2023-02-07T02:33:44.395Z,970.58
2023-02-07T02:34:44.363Z,970.60
2023-02-07T02:35:44.349Z,970.61
2023-02-07T02:36:44.348Z,970.63
2023-02-07T02:37:44.318Z,970.60
2023-02-07T02:38:44.306Z,970.64
2023-02-07T02:39:44.287Z,970.64
2023-02-07T02:40:44.296Z,970.64
2023-02-07T02:41:44.258Z,970.63
2023-02-07T02:42:44.284Z,970.64
2023-02-07T02:43:44.225Z,970.65
2023-02-07T02:44:44.232Z,970.66
2023-02-07T02:45:44.210Z,970.69
2023-02-07T02:46:44.300Z,970.72
2023-02-07T02:47:44.227Z,970.77
2023-02-07T02:48:44.170Z,970.75
2023-02-07T02:49:44.157Z,970.78
2023-02-07T02:50:44.137Z,970.79
2023-02-07T02:51:44.152Z,970.80
2023-02-07T02:52:50.577Z,970.83
2023-02-07T02:53:44.116Z,970.87
2023-02-07T02:54:44.107Z,970.84
2023-02-07T02:55:44.083Z,970.84
2023-02-07T02:56:44.077Z,970.81
2023-02-07T02:57:44.103Z,970.78
2023-02-07T02:58:44.073Z,970.80
2023-02-07T02:59:44.039Z,970.78
2023-02-07T03:00:44.025Z,970.78
2023-02-07T03:01:44.045Z,970.77
2023-02-07T03:02:43.994Z,970.76
2023-02-07T03:03:44.008Z,970.68
2023-02-07T03:04:43.992Z,970.67
2023-02-07T03:05:43.968Z,970.64
2023-02-07T03:06:43.941Z,970.63
2023-02-07T03:07:43.928Z,970.53
2023-02-07T03:08:43.931Z,970.50
2023-02-07T03:09:43.936Z,970.49
2023-02-07T03:10:43.886Z,970.46
2023-02-07T03:11:43.883Z,970.43
2023-02-07T03:12:43.875Z,970.42
2023-02-07T03:13:43.888Z,970.34
2023-02-07T03:14:43.842Z,970.32
2023-02-07T03:15:43.850Z,970.29
2023-02-07T03:16:43.819Z,970.35
2023-02-07T03:17:43.802Z,970.32
2023-02-07T03:18:43.801Z,970.35
2023-02-07T03:19:43.799Z,970.34
2023-02-07T03:20:43.794Z,970.36
2023-02-07T03:21:43.757Z,970.35
2023-02-07T03:22:43.744Z,970.36
2023-02-07T03:23:43.747Z,970.35
2023-02-07T03:24:43.714Z,970.38
2023-02-07T03:25:43.732Z,970.33
2023-02-07T03:26:43.681Z,970.34
2023-02-07T03:27:43.668Z,970.32
2023-02-07T03:28:43.677Z,970.33
2023-02-07T03:29:43.661Z,970.32
2023-02-07T03:30:43.675Z,970.32
2023-02-07T03:31:43.723Z,970.30
2023-02-07T03:32:43.622Z,970.26
2023-02-07T03:33:43.602Z,970.25
2023-02-07T03:34:43.588Z,970.24
2023-02-07T03:35:43.603Z,970.24
2023-02-07T03:36:43.600Z,970.28
2023-02-07T03:37:43.555Z,970.24
2023-02-07T03:38:43.570Z,970.25
2023-02-07T03:39:43.519Z,970.17
2023-02-07T03:40:43.506Z,970.15
2023-02-07T03:41:43.496Z,970.13
2023-02-07T03:42:43.533Z,970.13
2023-02-07T03:43:43.473Z,970.09
2023-02-07T03:44:43.461Z,970.10
2023-02-07T03:45:43.442Z,970.10
2023-02-07T03:46:43.502Z,970.09
2023-02-07T03:47:43.447Z,970.09
2023-02-07T03:48:43.404Z,970.07
2023-02-07T03:49:43.400Z,970.05
2023-02-07T03:50:43.396Z,970.08
2023-02-07T03:51:43.403Z,970.07
2023-02-07T03:52:43.372Z,970.01
2023-02-07T03:53:43.362Z,969.97
2023-02-07T03:54:43.336Z,969.99
2023-02-07T03:55:43.336Z,970.01
2023-02-07T03:56:43.323Z,970.03
2023-02-07T03:57:43.315Z,970.02
2023-02-07T03:58:43.309Z,970.03
2023-02-07T03:59:43.267Z,970.05
2023-02-07T04:00:43.302Z,970.01
2023-02-07T04:01:43.312Z,969.97
2023-02-07T04:02:43.232Z,970.03
2023-02-07T04:03:43.235Z,970.01
2023-02-07T04:04:43.237Z,970.05
2023-02-07T04:05:43.210Z,970.15
2023-02-07T04:06:43.176Z,970.17
2023-02-07T04:07:43.208Z,970.26
2023-02-07T04:08:43.166Z,970.23
2023-02-07T04:09:43.165Z,970.20
2023-02-07T04:10:43.130Z,970.20
2023-02-07T04:11:43.128Z,970.19
2023-02-07T04:12:43.110Z,970.26
2023-02-07T04:13:43.108Z,970.27
2023-02-07T04:14:43.092Z,970.32
2023-02-07T04:15:43.065Z,970.25
2023-02-07T04:16:43.078Z,970.22
2023-02-07T04:17:43.055Z,970.27
2023-02-07T04:18:43.057Z,970.29
2023-02-07T04:19:43.012Z,970.35
2023-02-07T04:20:43.099Z,970.34
2023-02-07T04:21:43.040Z,970.31
2023-02-07T04:22:42.995Z,970.21
2023-02-07T04:23:42.989Z,970.24
2023-02-07T04:24:42.949Z,970.19
2023-02-07T04:25:42.940Z,970.18
2023-02-07T04:26:42.924Z,970.18
2023-02-07T04:27:42.912Z,970.12
2023-02-07T04:28:42.928Z,970.11
2023-02-07T04:29:42.887Z,970.07
2023-02-07T04:30:42.923Z,970.02
2023-02-07T04:31:42.919Z,970.05
2023-02-07T04:32:42.858Z,970.13
2023-02-07T04:33:42.838Z,970.19
2023-02-07T04:34:42.824Z,970.08
2023-02-07T04:35:42.806Z,970.06
2023-02-07T04:36:42.833Z,970.04
2023-02-07T04:37:42.782Z,969.97
2023-02-07T04:38:42.776Z,969.99
2023-02-07T04:39:42.762Z,969.99
2023-02-07T04:40:42.759Z,969.95
2023-02-07T04:41:42.770Z,969.90
2023-02-07T04:42:42.716Z,969.89
2023-02-07T04:43:42.730Z,969.88
2023-02-07T04:44:42.698Z,969.96
2023-02-07T04:45:42.741Z,969.98
2023-02-07T04:46:42.707Z,970.09
2023-02-07T04:47:42.671Z,970.11
2023-02-07T04:48:42.655Z,970.12
2023-02-07T04:49:42.637Z,970.11
2023-02-07T04:50:42.620Z,970.15
2023-02-07T04:51:42.641Z,970.18
2023-02-07T04:52:42.596Z,970.14
2023-02-07T04:53:42.573Z,970.16
2023-02-07T04:54:42.592Z,970.09
2023-02-07T04:55:42.580Z,970.09
2023-02-07T04:56:42.549Z,970.11
2023-02-07T04:57:42.529Z,970.13
2023-02-07T04:58:42.529Z,970.11
2023-02-07T04:59:42.531Z,970.17
2023-02-07T05:00:42.632Z,970.20
2023-02-07T05:01:42.483Z,970.20
2023-02-07T05:02:42.468Z,970.13
2023-02-07T05:03:42.453Z,970.12
2023-02-07T05:04:42.504Z,970.12
2023-02-07T05:05:42.445Z,970.16
2023-02-07T05:06:42.423Z,970.30
2023-02-07T05:07:42.415Z,970.33
2023-02-07T05:08:42.389Z,970.32
2023-02-07T05:09:42.401Z,970.30
2023-02-07T05:10:42.375Z,970.33
2023-02-07T05:11:42.368Z,970.38
2023-02-07T05:12:42.338Z,970.44
2023-02-07T05:13:42.334Z,970.53
2023-02-07T05:14:42.337Z,970.58
2023-02-07T05:15:42.336Z,970.55
2023-02-07T05:16:42.309Z,970.59
2023-02-07T05:17:42.278Z,970.54
2023-02-07T05:18:42.269Z,970.57
2023-02-07T05:19:42.255Z,970.52
2023-02-07T05:20:42.277Z,970.45
2023-02-07T05:21:42.247Z,970.49
2023-02-07T05:22:42.217Z,970.49
2023-02-07T05:23:42.228Z,970.45
2023-02-07T05:24:42.191Z,970.47
2023-02-07T05:25:42.206Z,970.53
2023-02-07T05:26:42.170Z,970.57
2023-02-07T05:27:42.176Z,970.57
2023-02-07T05:28:42.137Z,970.62
2023-02-07T05:29:42.136Z,970.63
2023-02-07T05:30:42.183Z,970.65
2023-02-07T05:31:42.229Z,970.62
2023-02-07T05:32:42.086Z,970.63
2023-02-07T05:33:42.082Z,970.62
2023-02-07T05:34:42.067Z,970.60
2023-02-07T05:35:42.080Z,970.60
2023-02-07T05:36:42.064Z,970.69
2023-02-07T05:37:42.026Z,970.69
2023-02-07T05:38:42.018Z,970.69
2023-02-07T05:39:42.005Z,970.67
2023-02-07T05:40:42.008Z,970.72
2023-02-07T05:41:41.969Z,970.68
2023-02-07T05:42:41.976Z,970.69
2023-02-07T05:43:41.978Z,970.67
2023-02-07T05:44:41.970Z,970.65
2023-02-07T05:45:42.062Z,970.61
2023-02-07T05:46:41.935Z,970.61
2023-02-07T05:47:41.921Z,970.55
2023-02-07T05:48:41.889Z,970.57
2023-02-07T05:49:41.900Z,970.53
2023-02-07T05:50:41.860Z,970.54
2023-02-07T05:51:41.875Z,970.54
2023-02-07T05:52:41.866Z,970.58
2023-02-07T05:53:41.832Z,970.56
2023-02-07T05:54:41.814Z,970.58
2023-02-07T05:55:41.840Z,970.57
2023-02-07T05:56:41.836Z,970.55
2023-02-07T05:57:41.772Z,970.55
2023-02-07T05:58:41.759Z,970.56
2023-02-07T05:59:41.833Z,970.54
2023-02-07T06:00:41.735Z,970.54
2023-02-07T06:01:41.751Z,970.57
2023-02-07T06:02:41.746Z,970.59
2023-02-07T06:03:41.701Z,970.60
2023-02-07T06:04:41.684Z,970.60
2023-02-07T06:05:41.670Z,970.58
2023-02-07T06:06:44.007Z,970.57
2023-02-07T06:07:41.641Z,970.57
2023-02-07T06:08:41.698Z,970.55
2023-02-07T06:09:41.614Z,970.55
2023-02-07T06:10:41.617Z,970.56
2023-02-07T06:11:41.634Z,970.58
2023-02-07T06:12:41.582Z,970.62
2023-02-07T06:13:41.574Z,970.59
2023-02-07T06:14:41.561Z,970.62
2023-02-07T06:15:41.773Z,970.64
2023-02-07T06:16:41.539Z,970.66
2023-02-07T06:17:41.537Z,970.67
2023-02-07T06:18:41.541Z,970.68
2023-02-07T06:19:41.491Z,970.70
2023-02-07T06:20:41.472Z,970.73
2023-02-07T06:21:46.769Z,970.75
2023-02-07T06:22:41.488Z,970.74
2023-02-07T06:23:41.441Z,970.77
2023-02-07T06:24:41.428Z,970.79
2023-02-07T06:25:41.422Z,970.76
2023-02-07T06:26:41.428Z,970.79
2023-02-07T06:27:41.409Z,970.82
2023-02-07T06:28:41.391Z,970.85
2023-02-07T06:29:41.360Z,970.87
2023-02-07T06:30:41.372Z,970.92
2023-02-07T06:31:41.392Z,970.94
2023-02-07T06:32:41.331Z,970.90
2023-02-07T06:33:41.345Z,970.91
2023-02-07T06:34:41.307Z,970.91
2023-02-07T06:35:41.288Z,970.93
2023-02-07T06:36:41.288Z,970.94
2023-02-07T06:37:41.280Z,971.04
2023-02-07T06:38:41.295Z,970.99
2023-02-07T06:39:41.253Z,970.96
2023-02-07T06:40:41.236Z,970.96
2023-02-07T06:41:41.226Z,970.95
2023-02-07T06:42:41.201Z,970.95
2023-02-07T06:43:41.245Z,970.99
2023-02-07T06:44:41.174Z,970.98
2023-02-07T06:45:41.172Z,971.01
2023-02-07T06:46:41.146Z,971.00
2023-02-07T06:47:41.152Z,970.95
2023-02-07T06:48:41.135Z,970.98
2023-02-07T06:49:41.143Z,971.05
2023-02-07T06:50:41.118Z,971.06
2023-02-07T06:51:41.089Z,971.06
2023-02-07T06:52:41.068Z,971.08
2023-02-07T06:53:41.117Z,971.05
2023-02-07T06:54:41.068Z,971.06
2023-02-07T06:55:41.243Z,971.08
2023-02-07T06:56:41.062Z,971.10
2023-02-07T06:57:41.030Z,971.07
2023-02-07T06:58:41.004Z,971.11
2023-02-07T06:59:41.003Z,971.10
2023-02-07T07:00:41.015Z,971.15
2023-02-07T07:01:40.993Z,971.13
2023-02-07T07:02:40.967Z,971.12
2023-02-07T07:03:40.945Z,971.10
2023-02-07T07:04:40.949Z,971.06
2023-02-07T07:05:40.950Z,971.02
2023-02-07T07:06:40.898Z,971.00
2023-02-07T07:07:40.949Z,971.04
2023-02-07T07:08:40.910Z,971.01
2023-02-07T07:09:40.867Z,971.00
2023-02-07T07:10:40.939Z,971.02
2023-02-07T07:11:40.844Z,971.01
2023-02-07T07:12:40.871Z,971.04
2023-02-07T07:13:40.835Z,971.02
2023-02-07T07:14:40.846Z,971.04
2023-02-07T07:15:40.909Z,971.01
2023-02-07T07:16:40.786Z,971.03
2023-02-07T07:17:40.764Z,970.97
2023-02-07T07:18:40.809Z,970.93
2023-02-07T07:19:40.792Z,970.98
2023-02-07T07:20:40.732Z,971.01
2023-02-07T07:21:40.747Z,971.03
2023-02-07T07:22:40.703Z,971.00
2023-02-07T07:23:40.716Z,971.01
2023-02-07T07:24:40.717Z,970.99
2023-02-07T07:25:41.003Z,971.06
2023-02-07T07:26:49.332Z,971.00
2023-02-07T07:27:40.660Z,971.00
2023-02-07T07:28:40.623Z,970.96
2023-02-07T07:29:40.603Z,970.95
2023-02-07T07:30:40.709Z,970.96
2023-02-07T07:31:40.682Z,970.93
2023-02-07T07:32:40.579Z,970.96
2023-02-07T07:33:40.558Z,970.97
2023-02-07T07:34:40.579Z,970.97
2023-02-07T07:35:40.915Z,970.95
2023-02-07T07:36:40.544Z,970.92
2023-02-07T07:37:40.507Z,970.91
2023-02-07T07:38:41.648Z,970.84
2023-02-07T07:39:40.502Z,970.87
2023-02-07T07:40:40.809Z,970.84
2023-02-07T07:41:40.458Z,970.86
2023-02-07T07:42:40.443Z,970.86
2023-02-07T07:43:40.424Z,970.82
2023-02-07T07:44:40.418Z,970.81
2023-02-07T07:45:40.440Z,970.80
2023-02-07T07:46:40.477Z,970.83
2023-02-07T07:47:40.394Z,970.82
2023-02-07T07:48:40.363Z,970.82
2023-02-07T07:49:40.348Z,970.73
2023-02-07T07:50:40.775Z,970.74
2023-02-07T07:51:40.357Z,970.78
2023-02-07T07:52:40.323Z,970.78
2023-02-07T07:53:40.322Z,970.72
2023-02-07T07:54:40.280Z,970.67
2023-02-07T07:55:40.279Z,970.72
2023-02-07T07:56:40.312Z,970.67
2023-02-07T07:57:40.265Z,970.66
2023-02-07T07:58:40.262Z,970.71
2023-02-07T07:59:40.224Z,970.70
2023-02-07T08:00:40.560Z,970.71
2023-02-07T08:01:40.204Z,970.74
2023-02-07T08:02:40.212Z,970.71
2023-02-07T08:03:40.222Z,970.74
2023-02-07T08:04:40.185Z,970.67
2023-02-07T08:05:40.167Z,970.68
2023-02-07T08:06:40.152Z,970.69
2023-02-07T08:07:40.125Z,970.66
2023-02-07T08:08:40.152Z,970.65
2023-02-07T08:09:40.095Z,970.61
2023-02-07T08:10:40.618Z,970.62
2023-02-07T08:11:40.067Z,970.62
2023-02-07T08:12:54.863Z,970.59
2023-02-07T08:13:40.041Z,970.59
2023-02-07T08:14:40.037Z,970.60
2023-02-07T08:15:40.054Z,970.58
2023-02-07T08:16:40.023Z,970.54
2023-02-07T08:17:40.006Z,970.57
2023-02-07T08:18:40.018Z,970.56
2023-02-07T08:19:39.969Z,970.56
2023-02-07T08:20:40.289Z,970.54
2023-02-07T08:21:39.979Z,970.49
2023-02-07T08:22:39.948Z,970.47
2023-02-07T08:23:39.924Z,970.39
2023-02-07T08:24:39.928Z,970.34
2023-02-07T08:25:39.974Z,970.32
2023-02-07T08:28:52.659Z,970.36
2023-02-07T08:29:53.615Z,970.38
2023-02-07T08:30:53.686Z,970.39
2023-02-07T08:31:53.618Z,970.40
2023-02-07T08:32:53.611Z,970.44
2023-02-07T08:33:53.558Z,970.44
2023-02-07T08:34:53.542Z,970.44
2023-02-07T08:35:53.540Z,970.45
2023-02-07T08:36:53.530Z,970.47
2023-02-07T08:37:53.540Z,970.46
2023-02-07T08:38:53.501Z,970.47
2023-02-07T08:39:53.492Z,970.43
2023-02-07T08:40:53.462Z,970.48
2023-02-07T08:41:53.483Z,970.51
2023-02-07T08:42:53.433Z,970.52
2023-02-07T08:43:53.437Z,970.55
2023-02-07T08:44:53.424Z,970.54
2023-02-07T08:45:53.498Z,970.60
2023-02-07T08:46:53.413Z,970.48
2023-02-07T08:47:53.393Z,970.46
2023-02-07T08:48:53.368Z,970.39
2023-02-07T08:49:53.369Z,970.39
2023-02-07T08:50:53.372Z,970.39
2023-02-07T08:51:53.320Z,970.38
2023-02-07T08:52:53.305Z,970.40
2023-02-07T08:53:53.330Z,970.38
2023-02-07T08:54:53.289Z,970.33
2023-02-07T08:55:53.309Z,970.37
2023-02-07T08:56:53.264Z,970.34
2023-02-07T08:57:53.233Z,970.29
2023-02-07T08:58:53.237Z,970.28
2023-02-07T08:59:53.241Z,970.32
2023-02-07T09:00:53.267Z,970.26
2023-02-07T09:01:53.207Z,970.32
2023-02-07T09:02:53.198Z,970.29
2023-02-07T09:03:53.167Z,970.32
2023-02-07T09:04:53.229Z,970.29
2023-02-07T09:05:53.132Z,970.27
2023-02-07T09:06:53.134Z,970.25
2023-02-07T09:07:53.118Z,970.20
2023-02-07T09:08:53.095Z,970.20
2023-02-07T09:09:53.131Z,970.18
2023-02-07T09:10:53.122Z,970.20
2023-02-07T09:11:53.060Z,970.20
2023-02-07T09:12:53.052Z,970.18
2023-02-07T09:13:53.059Z,970.17
2023-02-07T09:14:53.016Z,970.17
2023-02-07T09:15:53.043Z,970.21
2023-02-07T09:16:53.136Z,970.21
2023-02-07T09:17:53.008Z,970.19
2023-02-07T09:18:52.975Z,970.16
2023-02-07T09:19:52.959Z,970.19
2023-02-07T09:20:52.931Z,970.12
2023-02-07T09:21:52.930Z,970.16
2023-02-07T09:22:52.943Z,970.21
2023-02-07T09:23:52.886Z,970.25
2023-02-07T09:24:52.878Z,970.28
2023-02-07T09:25:52.908Z,970.30
2023-02-07T09:26:52.871Z,970.26
2023-02-07T09:27:52.940Z,970.19
2023-02-07T09:28:52.856Z,970.19
2023-02-07T09:29:52.812Z,970.20
2023-02-07T09:30:53.261Z,970.21
2023-02-07T09:31:52.955Z,970.24
2023-02-07T09:32:52.784Z,970.22
2023-02-07T09:33:52.880Z,970.21
2023-02-07T09:34:52.789Z,970.22
2023-02-07T09:35:52.755Z,970.23
2023-02-07T09:36:52.739Z,970.25
2023-02-07T09:37:52.713Z,970.25
2023-02-07T09:38:52.707Z,970.29
2023-02-07T09:39:52.679Z,970.27
2023-02-07T09:40:52.699Z,970.28
2023-02-07T09:41:52.679Z,970.26
2023-02-07T09:42:52.653Z,970.24
2023-02-07T09:43:52.818Z,970.28
2023-02-07T09:44:52.972Z,970.28
2023-02-07T09:45:52.641Z,970.31
2023-02-07T09:46:52.620Z,970.32
2023-02-07T09:47:52.569Z,970.36
2023-02-07T09:48:52.572Z,970.38
2023-02-07T09:49:52.566Z,970.44
2023-02-07T09:50:52.567Z,970.49
2023-02-07T09:51:52.540Z,970.47
2023-02-07T09:52:52.518Z,970.50
2023-02-07T09:53:52.485Z,970.50
2023-02-07T09:54:52.496Z,970.55
2023-02-07T09:55:52.466Z,970.55
2023-02-07T09:56:52.467Z,970.57
2023-02-07T09:57:52.445Z,970.59
2023-02-07T09:58:52.416Z,970.62
2023-02-07T09:59:52.442Z,970.63
2023-02-07T10:00:52.401Z,970.59
2023-02-07T10:01:52.389Z,970.63
2023-02-07T10:02:52.420Z,970.62
2023-02-07T10:03:52.403Z,970.61
2023-02-07T10:04:52.337Z,970.64
2023-02-07T10:05:52.335Z,970.63
2023-02-07T10:06:52.352Z,970.64
2023-02-07T10:07:52.312Z,970.64
2023-02-07T10:08:52.274Z,970.68
2023-02-07T10:09:52.296Z,970.59
2023-02-07T10:10:52.261Z,970.62
2023-02-07T10:11:52.255Z,970.59
2023-02-07T10:12:52.227Z,970.61
2023-02-07T10:13:52.220Z,970.54
2023-02-07T10:14:52.229Z,970.54
2023-02-07T10:15:52.237Z,970.54
2023-02-07T10:16:52.196Z,970.53
2023-02-07T10:17:52.156Z,970.56
2023-02-07T10:18:52.153Z,970.53
2023-02-07T10:19:52.189Z,970.57
2023-02-07T10:20:52.119Z,970.54
2023-02-07T10:21:52.101Z,970.55
2023-02-07T10:22:52.107Z,970.53
2023-02-07T10:23:52.083Z,970.53
2023-02-07T10:24:52.073Z,970.57
2023-02-07T10:25:52.059Z,970.61
2023-02-07T10:26:52.091Z,970.54
2023-02-07T10:27:52.085Z,970.60
2023-02-07T10:28:52.018Z,970.56
2023-02-07T10:29:51.993Z,970.57
2023-02-07T10:30:52.162Z,970.52
2023-02-07T10:31:52.080Z,970.52
2023-02-07T10:32:51.962Z,970.50
2023-02-07T10:33:52.001Z,970.49
2023-02-07T10:34:52.554Z,970.46
2023-02-07T10:35:51.958Z,970.47
2023-02-07T10:36:51.918Z,970.49
2023-02-07T10:37:51.896Z,970.46
2023-02-07T10:38:56.976Z,970.47
2023-02-07T10:39:51.865Z,970.50
2023-02-07T10:40:51.849Z,970.49
2023-02-07T10:41:51.947Z,970.44
2023-02-07T10:42:51.882Z,970.48
2023-02-07T10:43:51.819Z,970.47
2023-02-07T10:44:51.785Z,970.47
2023-02-07T10:45:57.019Z,970.48
2023-02-07T10:46:51.811Z,970.49
2023-02-07T10:47:51.753Z,970.47
2023-02-07T10:48:51.776Z,970.46
2023-02-07T10:49:51.733Z,970.44
2023-02-07T10:50:51.715Z,970.37
2023-02-07T10:51:51.706Z,970.39
2023-02-07T10:52:51.688Z,970.38
2023-02-07T10:53:56.215Z,970.36
2023-02-07T10:54:51.703Z,970.36
2023-02-07T10:55:51.644Z,970.32
2023-02-07T10:56:51.653Z,970.29
2023-02-07T10:57:59.721Z,970.25
2023-02-07T10:58:51.627Z,970.28
2023-02-07T10:59:51.584Z,970.33
2023-02-07T11:00:51.635Z,970.32
2023-02-07T11:01:51.609Z,970.32
2023-02-07T11:02:51.604Z,970.34
2023-02-07T11:03:51.543Z,970.34
2023-02-07T11:06:19.055Z,970.35
2023-02-07T11:06:23.955Z,970.28
2023-02-07T11:07:23.937Z,970.28
2023-02-07T11:08:23.950Z,970.26
2023-02-07T11:09:23.921Z,970.24
2023-02-07T11:10:23.911Z,970.24
2023-02-07T11:11:23.920Z,970.24
2023-02-07T11:12:23.892Z,970.24
2023-02-07T11:13:23.863Z,970.23
2023-02-07T11:14:23.859Z,970.22
2023-02-07T11:15:23.831Z,970.20
2023-02-07T11:16:23.918Z,970.18
2023-02-07T11:17:23.872Z,970.18
2023-02-07T11:18:23.828Z,970.20
2023-02-07T11:19:23.779Z,970.21
2023-02-07T11:20:23.769Z,970.16
2023-02-07T11:21:23.776Z,970.16
2023-02-07T11:22:23.772Z,970.17
2023-02-07T11:23:23.736Z,970.12
2023-02-07T11:24:23.712Z,970.19
2023-02-07T11:25:23.716Z,970.14
2023-02-07T11:26:23.696Z,970.16
2023-02-07T11:27:23.726Z,970.20
2023-02-07T11:28:23.728Z,970.19
2023-02-07T11:29:23.654Z,970.18
2023-02-07T11:30:23.637Z,970.16
2023-02-07T11:31:23.689Z,970.16
2023-02-07T11:32:24.646Z,970.17
2023-02-07T11:33:23.589Z,970.18
2023-02-07T11:34:23.584Z,970.14
2023-02-07T11:35:23.568Z,970.10
2023-02-07T11:36:23.550Z,970.12
2023-02-07T11:37:23.572Z,970.09
2023-02-07T11:38:23.555Z,970.10
2023-02-07T11:39:23.518Z,970.09
2023-02-07T11:40:23.533Z,970.06
2023-02-07T11:41:23.488Z,969.95
2023-02-07T11:42:23.496Z,969.98
2023-02-07T11:43:23.492Z,969.94
2023-02-07T11:44:23.443Z,969.97
2023-02-07T11:45:23.434Z,969.95
2023-02-07T11:46:23.480Z,969.94
2023-02-07T11:47:23.416Z,969.96
2023-02-07T11:48:23.410Z,969.90
2023-02-07T11:49:23.379Z,969.90
2023-02-07T11:50:23.401Z,969.88
2023-02-07T11:51:23.343Z,969.84
2023-02-07T11:52:23.332Z,969.84
2023-02-07T11:53:23.337Z,969.83
2023-02-07T11:54:23.307Z,969.79
2023-02-07T11:55:23.312Z,969.76
2023-02-07T11:56:23.268Z,969.75
2023-02-07T11:57:23.289Z,969.69
2023-02-07T11:58:23.245Z,969.70
2023-02-07T11:59:23.241Z,969.73
2023-02-07T12:00:23.412Z,969.69
2023-02-07T12:01:23.215Z,969.67
2023-02-07T12:02:23.230Z,969.64
2023-02-07T12:03:23.210Z,969.60
2023-02-07T12:04:23.204Z,969.63
2023-02-07T12:05:23.197Z,969.62
2023-02-07T12:06:23.201Z,969.58
2023-02-07T12:07:23.124Z,969.61
2023-02-07T12:08:23.123Z,969.56
2023-02-07T12:09:23.131Z,969.52
2023-02-07T12:10:23.103Z,969.53
2023-02-07T12:11:23.102Z,969.50
2023-02-07T12:12:23.078Z,969.48
2023-02-07T12:13:23.084Z,969.49
2023-02-07T12:14:23.053Z,969.44
2023-02-07T12:15:23.047Z,969.41
2023-02-07T12:16:23.064Z,969.44
2023-02-07T12:17:23.038Z,969.43
2023-02-07T12:18:23.005Z,969.40
2023-02-07T12:19:22.973Z,969.39
2023-02-07T12:20:23.113Z,969.40
2023-02-07T12:21:22.938Z,969.38
2023-02-07T12:22:22.960Z,969.40
2023-02-07T12:23:41.419Z,969.38
2023-02-07T12:24:22.916Z,969.41
2023-02-07T12:25:22.890Z,969.42
2023-02-07T12:26:22.901Z,969.39
2023-02-07T12:27:22.876Z,969.37
2023-02-07T12:28:22.924Z,969.39
2023-02-07T12:29:22.848Z,969.39
2023-02-07T12:30:22.821Z,969.34
2023-02-07T12:31:22.869Z,969.36